Decoded Metar for VOCB (COIMBATORE in INDIA) (IATA:CJB) | Meteo·Mobile Aviation Weather
aviador You're here:

VOCB Decoded Metar

COIMBATORE in INDIA
Report Time2018-09-19 14:30:00
UTC Time2018-09-19 15:03:00
Flight Rules mvfr MVFR
Wind210° at 11 kt
W.Decomp.*RWY 23: 10.5 kt HW 3.4 kt LCW
W.Rank210° ranks 7
Current wind is above 210° avg. (7.1)
Visibility6000 m
Phenomena:N/A
Clouds:Few 015 Hf
Scattered 080 Hf
Expected CloudBase > 2,000 ft AGL from Temp-Dew spread
CeilingNone
Temp26°C (ISA +14)
Dew Point21°C (74% RH)
QNH1009 hPa
Density Alt3,346 ft
Elevation1,309 ft
Report Wrong Elevation
Raw Report
METAR VOCB 191430Z 21011KT 6000 FEW015 SCT080 26/21 Q1009 NOSIG=

Extra information for VOCB:More info

Metar Taf Metar & Taf Last 4 Metars F.Rules Stats Wind Profile Meteogram Temp Stats Airport Information Weather charts Add Link Nearby VenuesMetar ALERT Operation Metar Decoded Social comments